• Join FlightAware (Why Join?)
  • Login
  • US Flag 
 
04:51AM EST


 

Airport Tracker/Info


-or-


 

Live Flight TrackerFlight Track Log ✈ N779DB ✈ 21-Jun-2013 ✈ KPTK - KTVC

Flight Track Log - Related Links

Times and Time Zones

All times are in EDT time to prevent confusion due to time zone crossing. See the N779DB flight status page for this flight to view local times or setup timezone preferences in your user account.

Time Position Orientation Groundspeed Altitude Reporting Facility
EDT Latitude Longitude Course Direction KTS MPH feet Rate Location/Type
08:50AM 42.6656 -83.3983 57° Northeast 131 151 1,500  Level Cleveland Center
08:51AM 42.6853 -83.3569 57° Northeast 149 171 2,600 120 Climbing Cleveland Center
08:53AM 42.7367 -83.3708 349° North  Level FlightAware Approximate
09:00AM 43.0593 -83.3667 North  Level FlightAware Approximate
09:01AM 43.0924 -83.4052 312° West  Level FlightAware Approximate
09:02AM 43.1165 -83.4653 299° West  Level FlightAware Approximate
09:03AM 43.1405 -83.5254 299° West  Level FlightAware Approximate
09:04AM 43.1645 -83.5855 299° West  Level FlightAware Approximate
09:05AM 43.1885 -83.6458 299° West  Level FlightAware Approximate
09:06AM 43.2261 -83.6910 319° Northwest  Level Estimated
09:07AM 43.2634 -83.7367 318° Northwest  Level FlightAware Approximate
09:08AM 43.3008 -83.7825 318° Northwest  Level FlightAware Approximate
09:09AM 43.3381 -83.8283 318° Northwest  Level FlightAware Approximate
09:10AM 43.3754 -83.8741 318° Northwest  Level FlightAware Approximate
09:11AM 43.4126 -83.9201 318° Northwest  Level FlightAware Approximate
09:12AM 43.4499 -83.9660 318° Northwest  Level FlightAware Approximate
09:13AM 43.4871 -84.0121 318° Northwest  Level FlightAware Approximate
09:14AM 43.5243 -84.0582 318° Northwest  Level FlightAware Approximate
09:15AM 43.5615 -84.1043 318° Northwest  Level FlightAware Approximate
09:16AM 43.5987 -84.1505 318° Northwest  Level FlightAware Approximate
09:17AM 43.6359 -84.1968 318° Northwest  Level FlightAware Approximate
09:18AM 43.6730 -84.2431 318° Northwest  Level FlightAware Approximate
09:19AM 43.7101 -84.2895 318° Northwest  Level FlightAware Approximate
09:20AM 43.7472 -84.3359 318° Northwest  Level FlightAware Approximate
09:20AM 43.7897 -84.4636 318° Northwest 180 207 6,000  Level Minneapolis Center
09:21AM 43.7843 -84.3824 318° Northwest  Level FlightAware Approximate
09:21AM 43.8208 -84.5172 309° West 179 206 6,000  Level Minneapolis Center
09:22AM 43.8214 -84.4289 318° Northwest  Level FlightAware Approximate
09:22AM 43.8519 -84.5519 321° Northwest 179 206 6,000  Level Minneapolis Center
09:23AM 43.8584 -84.4756 318° Northwest  Level FlightAware Approximate
09:23AM 43.8986 -84.6031 322° Northwest 179 206 6,000  Level Minneapolis Center
09:24AM 43.8954 -84.5222 318° Northwest  Level FlightAware Approximate
09:24AM 43.9367 -84.6478 320° Northwest 179 206 6,000  Level Minneapolis Center
09:25AM 43.9324 -84.5689 318° Northwest  Level FlightAware Approximate
09:25AM 43.9747 -84.6908 321° Northwest 179 206 6,000  Level Minneapolis Center
09:26AM 43.9694 -84.6157 318° Northwest  Level FlightAware Approximate
09:26AM 44.0142 -84.7347 321° Northwest 180 207 6,000  Level Minneapolis Center
09:27AM 44.0603 -84.7867 321° Northwest 179 206 6,000  Level Minneapolis Center
09:29AM 44.0983 -84.8311 320° Northwest 179 206 6,000  Level Minneapolis Center
09:30AM 44.1367 -84.8761 320° Northwest 180 207 6,000  Level Minneapolis Center
09:31AM 44.1825 -84.9303 320° Northwest 180 207 6,000  Level Minneapolis Center
09:32AM 44.2217 -84.9750 321° Northwest 181 208 6,000 -60 Level Minneapolis Center
09:33AM 44.2608 -85.0200 321° Northwest 182 209 5,900 -60 Descending Minneapolis Center
09:34AM 44.2992 -85.0644 320° Northwest 181 208 5,900  Level Minneapolis Center
09:35AM 44.3453 -85.1183 320° Northwest 181 208 5,900  Level Minneapolis Center
09:36AM 44.3850 -85.1631 321° Northwest 182 209 5,900  Level Minneapolis Center
09:37AM 44.4233 -85.2094 319° Northwest 182 209 5,900  Level Minneapolis Center
09:38AM 44.4622 -85.2542 321° Northwest 182 209 5,900 -120 Level Minneapolis Center
09:39AM 44.5011 -85.2997 320° Northwest 182 209 5,700 -600 Descending Minneapolis Center
09:40AM 44.5442 -85.3497 320° Northwest 189 217 4,700 -1,020 Descending Minneapolis Center
09:41AM 44.5914 -85.3989 323° Northwest 200 230 3,600 -960 Descending Minneapolis Center
09:42AM 44.6500 -85.4528 327° Northwest 208 239 2,800 -720 Descending Minneapolis Center
09:43AM 44.6931 -85.4858 331° Northwest 194 223 2,200 -660 Descending Minneapolis Center
09:44AM 44.7294 -85.5228 324° Northwest 177 204 1,500 -420 Descending Minneapolis Center
09:45AM 44.7639 -85.5594 323° Northwest 174 200 1,400 -120 Descending Minneapolis Center
09:47AM 44.7333 -85.5667 325° Northwest  Level FlightAware Approximate